createdAt,value
2018-12-07T00:00:01.362Z,5.03
2018-12-07T00:02:29.910Z,3.83
2018-12-07T00:04:59.354Z,4.33
2018-12-07T00:07:27.843Z,3.73
2018-12-07T00:09:56.290Z,2.93
2018-12-07T00:12:24.792Z,3.87
2018-12-07T00:14:53.265Z,2.57
2018-12-07T00:17:21.883Z,3.30
2018-12-07T00:19:51.297Z,1.80
2018-12-07T00:22:19.946Z,1.93
2018-12-07T00:24:49.117Z,1.87
2018-12-07T00:27:17.606Z,1.63
2018-12-07T00:29:46.054Z,1.30
2018-12-07T00:32:14.555Z,1.37
2018-12-07T00:34:43.037Z,1.47
2018-12-07T00:37:11.458Z,1.73
2018-12-07T00:39:42.243Z,2.80
2018-12-07T00:42:11.844Z,1.20
2018-12-07T00:44:40.412Z,1.40
2018-12-07T00:47:08.876Z,1.63
2018-12-07T00:49:37.326Z,2.07
2018-12-07T00:52:05.820Z,4.03
2018-12-07T00:54:34.304Z,2.10
2018-12-07T00:57:02.879Z,2.77
2018-12-07T00:59:31.318Z,2.77
2018-12-07T01:01:59.754Z,2.90
2018-12-07T01:04:28.210Z,2.13
2018-12-07T01:06:56.718Z,1.73
2018-12-07T01:09:25.199Z,1.60
2018-12-07T01:11:53.684Z,1.80
2018-12-07T01:14:22.189Z,2.23
2018-12-07T01:16:51.686Z,1.87
2018-12-07T01:19:20.147Z,2.10
2018-12-07T01:21:49.918Z,2.40
2018-12-07T01:24:18.384Z,1.80
2018-12-07T01:26:46.829Z,2.27
2018-12-07T01:29:15.254Z,3.40
2018-12-07T01:31:43.726Z,3.97
2018-12-07T01:34:12.141Z,1.90
2018-12-07T01:36:40.574Z,1.93
2018-12-07T01:39:09.042Z,2.20
2018-12-07T01:41:37.540Z,2.33
2018-12-07T01:44:06.010Z,2.63
2018-12-07T01:46:34.730Z,1.63
2018-12-07T01:49:03.243Z,1.53
2018-12-07T01:51:31.699Z,2.23
2018-12-07T01:54:00.147Z,1.80
2018-12-07T01:56:28.831Z,4.70
2018-12-07T01:58:57.301Z,1.50
2018-12-07T02:01:25.751Z,4.30
2018-12-07T02:03:54.228Z,1.60
2018-12-07T02:06:22.794Z,1.60
2018-12-07T02:08:51.222Z,3.47
2018-12-07T02:11:19.744Z,1.73
2018-12-07T02:13:48.236Z,1.30
2018-12-07T02:16:16.783Z,1.93
2018-12-07T02:18:45.177Z,1.40
2018-12-07T02:21:13.647Z,1.60
2018-12-07T02:23:42.155Z,3.60
2018-12-07T02:26:10.584Z,1.67
2018-12-07T02:28:39.012Z,1.57
2018-12-07T02:31:07.629Z,3.03
2018-12-07T02:33:36.224Z,3.23
2018-12-07T02:36:04.786Z,1.47
2018-12-07T02:38:33.224Z,1.03
2018-12-07T02:41:01.669Z,1.13
2018-12-07T02:43:30.099Z,2.57
2018-12-07T02:45:58.586Z,1.30
2018-12-07T02:48:27.381Z,1.30
2018-12-07T02:50:55.793Z,2.20
2018-12-07T02:53:24.241Z,5.50
2018-12-07T02:55:52.775Z,2.10
2018-12-07T02:58:21.247Z,2.47
2018-12-07T03:00:49.671Z,2.90
2018-12-07T03:03:18.090Z,2.93
2018-12-07T03:05:46.529Z,1.20
2018-12-07T03:08:14.953Z,2.77
2018-12-07T03:10:43.392Z,4.60
2018-12-07T03:13:12.057Z,1.43
2018-12-07T03:15:40.490Z,2.50
2018-12-07T03:18:18.955Z,3.43
2018-12-07T03:20:47.363Z,2.13
2018-12-07T03:23:15.823Z,1.70
2018-12-07T03:25:44.238Z,2.37
2018-12-07T03:28:12.691Z,2.97
2018-12-07T03:30:41.099Z,5.30
2018-12-07T03:33:09.521Z,2.10
2018-12-07T03:35:37.974Z,1.80
2018-12-07T03:38:06.549Z,1.63
2018-12-07T03:40:35.122Z,6.60
2018-12-07T03:43:03.574Z,3.17
2018-12-07T03:45:32.072Z,3.93
2018-12-07T03:48:00.523Z,2.57
2018-12-07T03:50:29.070Z,5.03
2018-12-07T03:52:57.634Z,6.03
2018-12-07T03:55:26.111Z,4.60
2018-12-07T03:57:54.549Z,2.90
2018-12-07T04:00:23.011Z,7.23
2018-12-07T04:02:51.579Z,4.20
2018-12-07T04:05:20.073Z,3.50
2018-12-07T04:07:48.551Z,4.67
2018-12-07T04:10:17.019Z,5.90
2018-12-07T04:12:45.548Z,3.13
2018-12-07T04:15:14.052Z,4.87
2018-12-07T04:17:42.492Z,4.67
2018-12-07T04:20:10.957Z,5.17
2018-12-07T04:22:39.516Z,3.93
2018-12-07T04:25:08.006Z,6.77
2018-12-07T04:27:36.497Z,7.80
2018-12-07T04:30:16.019Z,6.80
2018-12-07T04:32:44.458Z,6.47
2018-12-07T04:35:13.092Z,2.13
2018-12-07T04:37:41.544Z,3.13
2018-12-07T04:40:10.070Z,1.97
2018-12-07T04:42:38.563Z,6.47
2018-12-07T04:45:07.085Z,4.27
2018-12-07T04:47:35.573Z,4.67
2018-12-07T04:50:04.425Z,5.03
2018-12-07T04:52:33.043Z,6.50
2018-12-07T04:55:01.533Z,3.77
2018-12-07T04:57:29.987Z,6.13
2018-12-07T04:59:58.506Z,8.37
2018-12-07T05:02:27.000Z,4.03
2018-12-07T05:04:55.659Z,3.10
2018-12-07T05:07:24.091Z,6.27
2018-12-07T05:09:52.610Z,7.67
2018-12-07T05:12:21.159Z,9.83
2018-12-07T05:14:49.669Z,5.40
2018-12-07T05:17:18.153Z,5.07
2018-12-07T05:19:46.642Z,4.63
2018-12-07T05:22:15.181Z,4.50
2018-12-07T05:24:43.639Z,3.37
2018-12-07T05:27:12.102Z,6.00
2018-12-07T05:29:40.537Z,6.10
2018-12-07T05:32:09.148Z,5.63
2018-12-07T05:34:37.733Z,7.47
2018-12-07T05:37:06.221Z,6.33
2018-12-07T05:39:34.691Z,4.97
2018-12-07T05:42:03.176Z,6.43
2018-12-07T05:44:31.652Z,5.17
2018-12-07T05:47:00.220Z,9.03
2018-12-07T05:49:28.703Z,7.47
2018-12-07T05:51:57.180Z,5.97
2018-12-07T05:54:25.655Z,8.20
2018-12-07T05:56:54.125Z,10.23
2018-12-07T05:59:23.873Z,5.33
2018-12-07T06:01:53.636Z,5.93
2018-12-07T06:04:22.121Z,13.27
2018-12-07T06:06:50.621Z,5.97
2018-12-07T06:09:19.102Z,6.17
2018-12-07T06:11:47.562Z,11.07
2018-12-07T06:14:16.012Z,9.07
2018-12-07T06:16:44.493Z,11.73
2018-12-07T06:19:13.014Z,5.43
2018-12-07T06:21:41.524Z,8.30
2018-12-07T06:24:09.970Z,7.17
2018-12-07T06:26:38.460Z,8.03
2018-12-07T06:29:06.933Z,6.83
2018-12-07T06:31:35.417Z,9.07
2018-12-07T06:34:03.914Z,11.27
2018-12-07T06:36:32.357Z,9.00
2018-12-07T06:39:00.765Z,7.10
2018-12-07T06:41:29.250Z,5.27
2018-12-07T06:43:57.718Z,7.20
2018-12-07T06:46:26.357Z,10.17
2018-12-07T06:49:11.763Z,7.30
2018-12-07T06:51:42.015Z,5.77
2018-12-07T06:54:10.438Z,7.27
2018-12-07T06:56:38.966Z,6.33
2018-12-07T06:59:07.423Z,7.13
2018-12-07T07:01:36.495Z,5.13
2018-12-07T07:04:04.981Z,8.63
2018-12-07T07:06:33.416Z,11.77
2018-12-07T07:09:01.836Z,5.77
2018-12-07T07:11:30.295Z,6.87
2018-12-07T07:13:58.722Z,10.07
2018-12-07T07:16:27.169Z,6.73
2018-12-07T07:18:55.605Z,7.93
2018-12-07T07:21:24.022Z,5.07
2018-12-07T07:23:52.482Z,7.73
2018-12-07T07:26:20.910Z,7.87
2018-12-07T07:28:49.341Z,6.67
2018-12-07T07:31:17.766Z,6.70
2018-12-07T07:33:46.249Z,7.13
2018-12-07T07:36:14.683Z,7.10
2018-12-07T07:38:43.155Z,6.27
2018-12-07T07:41:11.631Z,8.97
2018-12-07T07:43:40.142Z,10.83
2018-12-07T07:46:08.618Z,10.23
2018-12-07T07:48:37.062Z,12.97
2018-12-07T07:51:06.614Z,7.47
2018-12-07T07:53:35.087Z,9.43
2018-12-07T07:56:03.523Z,5.97
2018-12-07T07:58:31.938Z,7.17
2018-12-07T08:01:00.402Z,10.10
2018-12-07T08:03:28.806Z,6.90
2018-12-07T08:05:57.485Z,8.43
2018-12-07T08:08:26.056Z,6.33
2018-12-07T08:10:54.479Z,7.80
2018-12-07T08:13:22.945Z,5.53
2018-12-07T08:15:51.526Z,9.37
2018-12-07T08:18:20.086Z,7.87
2018-12-07T08:20:48.547Z,6.03
2018-12-07T08:23:16.979Z,9.90
2018-12-07T08:25:46.067Z,8.57
2018-12-07T08:28:14.835Z,7.73
2018-12-07T08:30:43.305Z,7.47
2018-12-07T08:33:11.761Z,7.37
2018-12-07T08:35:40.228Z,11.27
2018-12-07T08:38:08.666Z,8.23
2018-12-07T08:40:37.100Z,7.07
2018-12-07T08:43:05.562Z,4.40
2018-12-07T08:45:34.049Z,9.43
2018-12-07T08:48:02.501Z,8.70
2018-12-07T08:50:30.954Z,9.73
2018-12-07T08:52:59.384Z,6.17
2018-12-07T08:55:27.832Z,10.23
2018-12-07T08:57:56.262Z,9.63
2018-12-07T09:00:24.807Z,8.77
2018-12-07T09:02:53.512Z,12.83
2018-12-07T09:05:21.953Z,9.77
2018-12-07T09:07:50.403Z,9.63
2018-12-07T09:10:18.973Z,6.90
2018-12-07T09:12:47.414Z,9.43
2018-12-07T09:15:15.876Z,5.60
2018-12-07T09:17:46.207Z,11.47
2018-12-07T09:20:14.661Z,5.63
2018-12-07T09:22:43.103Z,6.87
2018-12-07T09:25:11.499Z,8.87
2018-12-07T09:27:39.925Z,7.07
2018-12-07T09:30:08.628Z,13.87
2018-12-07T09:32:37.335Z,8.83
2018-12-07T09:35:06.449Z,8.03
2018-12-07T09:37:34.898Z,8.13
2018-12-07T09:40:03.471Z,4.07
2018-12-07T09:42:32.039Z,6.23
2018-12-07T09:45:00.439Z,7.50
2018-12-07T09:47:28.883Z,6.03
2018-12-07T09:49:57.339Z,10.07
2018-12-07T09:52:25.771Z,7.67
2018-12-07T09:54:54.194Z,8.47
2018-12-07T09:57:22.625Z,3.50
2018-12-07T09:59:51.086Z,4.73
2018-12-07T10:02:19.522Z,3.77
2018-12-07T10:04:48.217Z,2.33
2018-12-07T10:07:16.665Z,1.97
2018-12-07T10:09:45.339Z,2.23
2018-12-07T10:12:13.762Z,4.47
2018-12-07T10:14:42.207Z,2.30
2018-12-07T10:17:10.619Z,2.60
2018-12-07T10:19:39.174Z,1.43
2018-12-07T10:22:07.604Z,1.53
2018-12-07T10:24:36.055Z,2.83
2018-12-07T10:27:06.894Z,5.07
2018-12-07T10:29:35.503Z,6.00
2018-12-07T10:32:04.015Z,8.90
2018-12-07T10:34:32.425Z,4.93
2018-12-07T10:37:00.851Z,5.63
2018-12-07T10:39:29.304Z,1.93
2018-12-07T10:41:57.744Z,1.60
2018-12-07T10:44:27.776Z,3.60
2018-12-07T10:46:56.455Z,3.33
2018-12-07T10:49:24.866Z,3.00
2018-12-07T10:51:53.286Z,3.50
2018-12-07T10:54:21.823Z,3.00
2018-12-07T10:56:50.366Z,7.10
2018-12-07T10:59:19.065Z,1.53
2018-12-07T11:01:52.803Z,2.37
2018-12-07T11:06:34.638Z,2.70
2018-12-07T11:09:07.468Z,6.47
2018-12-07T11:11:45.010Z,8.03
2018-12-07T11:14:15.483Z,2.10
2018-12-07T11:16:49.252Z,1.17
2018-12-07T11:21:30.555Z,2.33
2018-12-07T11:24:04.382Z,1.00
2018-12-07T11:27:08.708Z,1.90
2018-12-07T11:29:42.368Z,0.90
2018-12-07T11:32:20.548Z,3.33
2018-12-07T11:34:53.394Z,1.30
2018-12-07T11:37:22.228Z,1.77
2018-12-07T11:39:50.666Z,1.40
2018-12-07T11:42:19.099Z,0.83
2018-12-07T11:44:47.574Z,0.70
2018-12-07T11:47:15.993Z,1.17
2018-12-07T11:49:44.647Z,0.97
2018-12-07T11:52:13.190Z,0.70
2018-12-07T11:54:41.637Z,2.40
2018-12-07T11:57:10.065Z,2.33
2018-12-07T11:59:38.638Z,3.00
2018-12-07T12:02:07.122Z,0.80
2018-12-07T12:04:35.549Z,1.53
2018-12-07T12:07:03.972Z,2.73
2018-12-07T12:09:32.393Z,1.53
2018-12-07T12:12:00.797Z,1.43
2018-12-07T12:14:29.243Z,1.43
2018-12-07T12:16:57.688Z,1.10
2018-12-07T12:19:26.123Z,4.17
2018-12-07T12:21:54.562Z,1.07
2018-12-07T12:24:23.025Z,0.60
2018-12-07T12:26:51.562Z,0.70
2018-12-07T12:29:20.039Z,2.07
2018-12-07T12:31:48.636Z,1.97
2018-12-07T12:34:17.034Z,1.15
2018-12-07T12:36:45.545Z,5.10
2018-12-07T12:39:14.117Z,0.70
2018-12-07T12:41:46.741Z,2.23
2018-12-07T12:44:13.104Z,0.80
2018-12-07T12:46:41.559Z,0.70
2018-12-07T12:49:10.041Z,0.77
2018-12-07T12:51:38.483Z,0.70
2018-12-07T12:54:07.263Z,0.70
2018-12-07T12:56:35.838Z,0.80
2018-12-07T12:59:04.319Z,0.93
2018-12-07T13:01:32.762Z,2.37
2018-12-07T13:04:01.195Z,0.50
2018-12-07T13:06:29.634Z,0.70
2018-12-07T13:08:58.039Z,1.90
2018-12-07T13:11:26.555Z,1.03
2018-12-07T13:13:55.017Z,0.80
2018-12-07T13:16:23.916Z,1.70
2018-12-07T13:18:52.450Z,1.20
2018-12-07T13:21:21.082Z,1.60
2018-12-07T13:23:49.619Z,2.77
2018-12-07T13:26:18.103Z,0.60
2018-12-07T13:28:46.580Z,0.70
2018-12-07T13:31:15.174Z,0.83
2018-12-07T13:33:43.680Z,1.10
2018-12-07T13:36:12.123Z,2.93
2018-12-07T13:38:40.627Z,1.13
2018-12-07T13:41:09.138Z,0.50
2018-12-07T13:43:37.676Z,1.73
2018-12-07T13:46:06.483Z,1.90
2018-12-07T13:48:35.741Z,0.70
2018-12-07T13:51:04.477Z,0.80
2018-12-07T13:53:33.046Z,0.63
2018-12-07T13:56:01.671Z,1.33
2018-12-07T13:58:30.386Z,0.77
2018-12-07T14:00:58.910Z,0.60
2018-12-07T14:03:27.800Z,1.17
2018-12-07T14:05:56.453Z,2.47
2018-12-07T14:08:25.277Z,1.07
2018-12-07T14:10:54.323Z,0.60
2018-12-07T14:13:23.154Z,2.27
2018-12-07T14:15:51.701Z,0.63
2018-12-07T14:18:20.763Z,1.27
2018-12-07T14:20:49.739Z,0.97
2018-12-07T14:26:13.304Z,0.70
2018-12-07T14:29:04.083Z,1.00
2018-12-07T14:31:33.016Z,0.80
2018-12-07T14:34:01.700Z,1.87
2018-12-07T14:36:30.408Z,3.77
2018-12-07T14:38:59.009Z,1.07
2018-12-07T14:41:27.826Z,0.70
2018-12-07T14:43:56.548Z,0.63
2018-12-07T14:46:25.300Z,0.80
2018-12-07T14:48:53.873Z,1.13
2018-12-07T14:51:22.424Z,0.50
2018-12-07T14:53:51.027Z,1.23
2018-12-07T14:56:20.945Z,0.70
2018-12-07T14:58:49.806Z,0.70
2018-12-07T15:01:18.418Z,2.33
2018-12-07T15:03:47.234Z,0.83
2018-12-07T15:06:16.186Z,1.37
2018-12-07T15:08:46.305Z,3.90
2018-12-07T15:11:15.193Z,2.23
2018-12-07T15:13:43.746Z,0.90
2018-12-07T15:16:12.434Z,1.60
2018-12-07T15:18:40.902Z,0.87
2018-12-07T15:21:09.463Z,3.70
2018-12-07T15:23:38.089Z,0.97
2018-12-07T15:26:06.746Z,2.57
2018-12-07T15:28:35.477Z,4.73
2018-12-07T15:31:04.097Z,1.43
2018-12-07T15:33:40.756Z,2.10
2018-12-07T15:36:15.910Z,1.10
2018-12-07T15:38:44.571Z,2.90
2018-12-07T15:41:13.632Z,1.27
2018-12-07T15:47:05.775Z,1.13
2018-12-07T15:49:37.406Z,1.10
2018-12-07T15:52:06.546Z,4.30
2018-12-07T15:54:35.095Z,2.10
2018-12-07T15:57:03.609Z,1.33
2018-12-07T15:59:34.666Z,5.47
2018-12-07T16:02:04.034Z,1.10
2018-12-07T16:04:32.922Z,1.63
2018-12-07T16:07:02.830Z,0.67
2018-12-07T16:09:31.665Z,0.80
2018-12-07T16:12:00.307Z,4.83
2018-12-07T16:14:29.159Z,1.83
2018-12-07T16:16:57.734Z,2.03
2018-12-07T16:19:26.526Z,1.93
2018-12-07T16:21:55.241Z,3.77
2018-12-07T16:24:24.005Z,1.97
2018-12-07T16:26:52.551Z,4.17
2018-12-07T16:29:21.019Z,4.17
2018-12-07T16:31:49.599Z,1.50
2018-12-07T16:34:18.248Z,5.80
2018-12-07T16:39:26.495Z,2.90
2018-12-07T16:41:55.208Z,2.67
2018-12-07T16:44:23.726Z,2.90
2018-12-07T16:46:52.591Z,3.00
2018-12-07T16:49:21.228Z,1.40
2018-12-07T16:51:50.360Z,2.97
2018-12-07T16:54:19.127Z,2.10
2018-12-07T16:56:47.868Z,1.67
2018-12-07T16:59:16.544Z,2.93
2018-12-07T17:01:45.146Z,2.87
2018-12-07T17:04:13.713Z,6.40
2018-12-07T17:06:42.572Z,1.60
2018-12-07T17:09:11.372Z,5.47
2018-12-07T17:11:40.129Z,2.63
2018-12-07T17:14:08.737Z,3.40
2018-12-07T17:16:37.260Z,1.90
2018-12-07T17:19:05.786Z,2.87
2018-12-07T17:21:34.588Z,5.47
2018-12-07T17:24:03.171Z,1.53
2018-12-07T17:26:31.967Z,2.07
2018-12-07T17:29:00.511Z,1.73
2018-12-07T17:31:29.291Z,1.20
2018-12-07T17:33:57.866Z,3.53
2018-12-07T17:36:26.461Z,3.80
2018-12-07T17:38:55.208Z,3.30
2018-12-07T17:41:23.730Z,1.10
2018-12-07T17:43:52.550Z,2.87
2018-12-07T17:46:21.455Z,1.40
2018-12-07T17:48:49.997Z,5.10
2018-12-07T17:51:18.710Z,7.13
2018-12-07T17:53:47.439Z,2.70
2018-12-07T17:56:15.988Z,2.30
2018-12-07T17:58:44.833Z,3.43
2018-12-07T18:01:13.341Z,2.50
2018-12-07T18:03:41.834Z,2.20
2018-12-07T18:06:10.319Z,5.53
2018-12-07T18:08:38.875Z,2.40
2018-12-07T18:11:07.488Z,3.57
2018-12-07T18:13:37.230Z,3.07
2018-12-07T18:16:06.044Z,4.30
2018-12-07T18:18:34.675Z,2.23
2018-12-07T18:21:03.406Z,5.70
2018-12-07T18:23:32.352Z,6.83
2018-12-07T18:26:01.328Z,6.87
2018-12-07T18:28:30.138Z,8.43
2018-12-07T18:30:58.746Z,6.00
2018-12-07T18:33:27.336Z,7.95
2018-12-07T18:35:55.874Z,7.13
2018-12-07T18:38:24.577Z,5.87
2018-12-07T18:40:53.271Z,7.07
2018-12-07T18:43:21.903Z,8.90
2018-12-07T18:45:50.530Z,5.77
2018-12-07T18:48:19.331Z,12.43
2018-12-07T18:50:50.966Z,7.70
2018-12-07T18:53:19.871Z,6.07
2018-12-07T18:55:48.653Z,6.07
2018-12-07T18:58:17.374Z,4.63
2018-12-07T19:00:46.123Z,5.70
2018-12-07T19:03:14.781Z,3.67
2018-12-07T19:05:43.442Z,3.27
2018-12-07T19:08:12.124Z,3.37
2018-12-07T19:10:40.782Z,4.07
2018-12-07T19:13:09.510Z,2.30
2018-12-07T19:15:38.286Z,2.70
2018-12-07T19:18:06.966Z,5.97
2018-12-07T19:20:35.632Z,4.90
2018-12-07T19:23:04.382Z,7.90
2018-12-07T19:25:32.987Z,3.77
2018-12-07T19:28:01.737Z,5.77
2018-12-07T19:30:30.456Z,7.70
2018-12-07T19:32:59.034Z,14.33
2018-12-07T19:35:27.802Z,4.00
2018-12-07T19:37:56.555Z,5.30
2018-12-07T19:40:25.231Z,8.93
2018-12-07T19:42:53.828Z,10.70
2018-12-07T19:45:22.499Z,7.50
2018-12-07T19:47:51.234Z,5.93
2018-12-07T19:50:20.079Z,5.60
2018-12-07T19:52:48.638Z,12.17
2018-12-07T19:55:17.291Z,4.73
2018-12-07T19:57:46.272Z,7.03
2018-12-07T20:00:14.976Z,7.67
2018-12-07T20:02:43.733Z,4.47
2018-12-07T20:05:13.857Z,7.80
2018-12-07T20:07:42.723Z,12.60
2018-12-07T20:10:11.601Z,6.13
2018-12-07T20:12:40.390Z,8.80
2018-12-07T20:15:09.198Z,9.40
2018-12-07T20:17:37.699Z,9.67
2018-12-07T20:20:07.080Z,10.80
2018-12-07T20:22:35.599Z,13.07
2018-12-07T20:25:04.579Z,9.37
2018-12-07T20:27:33.181Z,10.10
2018-12-07T20:30:01.715Z,12.00
2018-12-07T20:32:30.395Z,10.03
2018-12-07T20:34:58.963Z,8.77
2018-12-07T20:37:27.662Z,9.70
2018-12-07T20:39:56.162Z,11.90
2018-12-07T20:42:24.716Z,9.00
2018-12-07T20:44:53.434Z,8.83
2018-12-07T20:47:24.956Z,9.53
2018-12-07T20:49:52.867Z,10.63
2018-12-07T20:52:21.553Z,5.93
2018-12-07T20:54:49.984Z,8.87
2018-12-07T20:57:18.964Z,8.77
2018-12-07T20:59:48.009Z,7.33
2018-12-07T21:02:16.544Z,13.75
2018-12-07T21:04:46.686Z,12.83
2018-12-07T21:07:47.772Z,11.27
2018-12-07T21:11:26.726Z,14.87
2018-12-07T21:14:06.235Z,14.10
2018-12-07T21:19:39.082Z,11.00
2018-12-07T21:22:07.724Z,15.17
2018-12-07T21:24:36.323Z,12.73
2018-12-07T21:27:04.941Z,8.93
2018-12-07T21:29:37.678Z,10.83
2018-12-07T21:32:09.457Z,9.73
2018-12-07T21:34:49.415Z,17.03
2018-12-07T21:37:17.950Z,14.77
2018-12-07T21:39:49.433Z,13.83
2018-12-07T21:42:18.857Z,13.80
2018-12-07T21:45:05.904Z,18.37
2018-12-07T21:51:54.098Z,15.93
2018-12-07T21:54:23.925Z,17.20
2018-12-07T21:56:52.662Z,13.47
2018-12-07T21:59:21.318Z,19.63
2018-12-07T22:01:51.870Z,15.37
2018-12-07T22:04:20.458Z,11.63
2018-12-07T22:06:49.303Z,4.10
2018-12-07T22:09:34.483Z,4.23
2018-12-07T22:12:03.249Z,6.23
2018-12-07T22:17:05.789Z,7.27
2018-12-07T22:19:34.247Z,2.40
2018-12-07T22:22:02.833Z,5.40
2018-12-07T22:24:31.535Z,9.10
2018-12-07T22:27:00.005Z,9.93
2018-12-07T22:29:28.569Z,12.17
2018-12-07T22:32:00.235Z,11.23
2018-12-07T22:34:30.014Z,13.80
2018-12-07T22:36:59.025Z,12.77
2018-12-07T22:39:27.787Z,12.50
2018-12-07T22:41:56.544Z,8.60
2018-12-07T22:44:25.099Z,16.43
2018-12-07T22:46:53.866Z,11.60
2018-12-07T22:49:22.377Z,19.30
2018-12-07T22:51:50.805Z,18.60
2018-12-07T22:54:19.242Z,13.63
2018-12-07T22:56:47.651Z,17.83
2018-12-07T22:59:16.088Z,15.47
2018-12-07T23:01:44.630Z,18.40
2018-12-07T23:04:13.120Z,21.43
2018-12-07T23:07:08.401Z,24.80
2018-12-07T23:09:37.808Z,16.47
2018-12-07T23:12:06.287Z,16.90
2018-12-07T23:14:34.702Z,21.67
2018-12-07T23:17:06.273Z,17.97
2018-12-07T23:19:34.683Z,13.67
2018-12-07T23:22:03.142Z,16.90
2018-12-07T23:24:31.571Z,15.73
2018-12-07T23:27:00.035Z,11.23
2018-12-07T23:29:28.504Z,23.30
2018-12-07T23:31:57.091Z,23.27
2018-12-07T23:34:25.523Z,17.80
2018-12-07T23:36:54.001Z,16.03
2018-12-07T23:39:22.450Z,15.33
2018-12-07T23:41:58.155Z,17.67
2018-12-07T23:44:26.550Z,17.23
2018-12-07T23:49:34.457Z,24.80
2018-12-07T23:52:03.615Z,10.97
2018-12-07T23:54:32.019Z,12.53
2018-12-07T23:57:00.467Z,18.13
2018-12-07T23:59:28.943Z,17.80
